This is the latest recevied weather packets stored in our database for station/object WX2P-13. If no packets are shown the sender has not sent any weather packets the latest 10 day(s).
| Time | Temp. | Humidity | Pressure | Rain* | Wind** | Luminosity | Snow |
|---|---|---|---|---|---|---|---|
| 1777816016 | 20.56° C | 74% | 1018.9 hPa | 0 mm | - | 468 W/m² | - |
| 1777815410 | 20° C | 77% | 1019.1 hPa | 0 mm | - | 491 W/m² | - |
| 1777814804 | 19.44° C | 78% | 1019.1 hPa | 0 mm | - | 380 W/m² | - |
| 1777814500 | 19.44° C | 78% | 1018.9 hPa | 0 mm | - | 373 W/m² | - |
| 1777814198 | 19.44° C | 79% | 1018.6 hPa | 0 mm | - | 354 W/m² | - |
| 1777813592 | 18.89° C | 82% | 1018.6 hPa | 0 mm | - | 260 W/m² | - |
| 1777811777 | 16.67° C | 93% | 1018.6 hPa | 0 mm | - | 39 W/m² | - |
| 1777810868 | 15.56° C | 97% | 1018.3 hPa | 0 mm | - | 108 W/m² | - |
| 1777810564 | 15° C | 98% | 1018.4 hPa | 0 mm | - | 102 W/m² | - |
| 1777810261 | 15° C | 98% | 1018.2 hPa | 0 mm | - | 31 W/m² | - |
| 1777809655 | 15° C | 98% | 1018.4 hPa | 0 mm | - | 37 W/m² | - |
| 1777809352 | 15° C | 98% | 1018.5 hPa | 0 mm | - | 49 W/m² | - |
| 1777803901 | 13.89° C | 98% | 1017.5 hPa | 0 mm | - | 0 W/m² | - |
| 1777802990 | 13.89° C | 98% | 1017.2 hPa | 0 mm | - | 0 W/m² | - |
| 1777802386 | 13.89° C | 98% | 1017 hPa | 0 mm | - | 0 W/m² | - |
| 1777802084 | 13.89° C | 97% | 1017.1 hPa | 0 mm | - | 0 W/m² | - |
| 1777801174 | 13.89° C | 97% | 1017 hPa | 0 mm | - | 0 W/m² | - |
| 1777800872 | 13.89° C | 97% | 1016.6 hPa | 0 mm | - | 0 W/m² | - |
| 1777800567 | 13.89° C | 97% | 1016.8 hPa | 0 mm | - | 0 W/m² | - |
| 1777800264 | 13.89° C | 97% | 1016.8 hPa | 0 mm | - | 0 W/m² | - |
| 1777799959 | 13.89° C | 97% | 1016.8 hPa | 0 mm | - | 0 W/m² | - |
| 1777799656 | 13.89° C | 97% | 1016.9 hPa | 0 mm | - | 0 W/m² | - |
| 1777799353 | 14.44° C | 96% | 1016.9 hPa | 0 mm | - | 0 W/m² | - |
| 1777799049 | 14.44° C | 96% | 1016.7 hPa | 0 mm | - | 0 W/m² | - |
| 1777798744 | 14.44° C | 96% | 1016.8 hPa | 0 mm | - | 0 W/m² | - |
* Rain latest hour (hover to see other rain measurements)
** Current wind speed in m/s (hover to see current wind gust speed)